Enterprise, Louisiana
Current Conditions -  °F | °C
As of 8:55 AM on Monday 24 Nov 2014 (Local Time) from KHEZ Reporting Station
Few Clouds Few Clouds  
Wind Chill: 54°   Ceiling: Unl
Heat Index: 54°   Visibility: 10mi
Dew Point: 43°   Wind: 12mph
Humidity: 67%   Direction: 320°NW
Pressure: 29.95"   Gusts: 17mph
Location:  31.9°N, 91.88°W
Report Text: KHEZ 241455Z AUTO 32010G15KT 10SM FEW025 12/06 A2995 RMK AO1 52041
Loading
Personal Weather Stations






























Interactive Weather Map New forecast layout! Learn more

10-Day Weather Forecast

Advertisements
Track Severe Weather on mobile